sensor_id;sensor_type;location;lat;lon;timestamp;P1;durP1;ratioP1;P2;durP2;ratioP2
13487;SDS011;6816;48.506;9.050;2023-02-25T00:00:53;3.30;;;2.83;;
13487;SDS011;6816;48.506;9.050;2023-02-25T00:03:54;3.10;;;2.40;;
13487;SDS011;6816;48.506;9.050;2023-02-25T00:06:55;3.10;;;2.67;;
13487;SDS011;6816;48.506;9.050;2023-02-25T00:09:56;4.30;;;2.53;;
13487;SDS011;6816;48.506;9.050;2023-02-25T00:12:57;2.97;;;2.67;;
13487;SDS011;6816;48.506;9.050;2023-02-25T00:16:01;4.07;;;2.90;;
13487;SDS011;6816;48.506;9.050;2023-02-25T00:19:03;2.93;;;2.53;;
13487;SDS011;6816;48.506;9.050;2023-02-25T00:22:03;3.63;;;2.80;;
13487;SDS011;6816;48.506;9.050;2023-02-25T00:25:04;3.87;;;2.50;;
13487;SDS011;6816;48.506;9.050;2023-02-25T00:28:06;3.53;;;3.00;;
13487;SDS011;6816;48.506;9.050;2023-02-25T00:31:10;3.60;;;2.93;;
13487;SDS011;6816;48.506;9.050;2023-02-25T00:34:14;3.10;;;2.80;;
13487;SDS011;6816;48.506;9.050;2023-02-25T00:37:22;4.13;;;3.27;;
13487;SDS011;6816;48.506;9.050;2023-02-25T00:40:23;4.97;;;3.07;;
13487;SDS011;6816;48.506;9.050;2023-02-25T00:43:24;3.63;;;2.83;;
13487;SDS011;6816;48.506;9.050;2023-02-25T00:46:24;5.43;;;3.30;;
13487;SDS011;6816;48.506;9.050;2023-02-25T00:49:25;3.53;;;3.00;;
13487;SDS011;6816;48.506;9.050;2023-02-25T00:52:26;4.70;;;2.97;;
13487;SDS011;6816;48.506;9.050;2023-02-25T00:55:26;3.93;;;3.00;;
13487;SDS011;6816;48.506;9.050;2023-02-25T00:58:37;5.13;;;3.30;;
13487;SDS011;6816;48.506;9.050;2023-02-25T01:01:49;4.73;;;3.10;;
13487;SDS011;6816;48.506;9.050;2023-02-25T01:04:50;4.70;;;3.50;;
13487;SDS011;6816;48.506;9.050;2023-02-25T01:07:51;4.07;;;3.20;;
13487;SDS011;6816;48.506;9.050;2023-02-25T01:10:51;4.27;;;3.40;;
13487;SDS011;6816;48.506;9.050;2023-02-25T01:13:52;4.07;;;3.23;;
13487;SDS011;6816;48.506;9.050;2023-02-25T01:17:24;4.43;;;3.50;;
13487;SDS011;6816;48.506;9.050;2023-02-25T01:20:24;5.80;;;3.80;;
13487;SDS011;6816;48.506;9.050;2023-02-25T01:23:25;7.40;;;3.97;;
13487;SDS011;6816;48.506;9.050;2023-02-25T01:26:27;5.33;;;3.93;;
13487;SDS011;6816;48.506;9.050;2023-02-25T01:29:34;5.13;;;4.00;;
13487;SDS011;6816;48.506;9.050;2023-02-25T01:32:38;4.27;;;3.87;;
13487;SDS011;6816;48.506;9.050;2023-02-25T01:35:38;4.73;;;3.53;;
13487;SDS011;6816;48.506;9.050;2023-02-25T01:38:39;5.27;;;3.83;;
13487;SDS011;6816;48.506;9.050;2023-02-25T01:41:40;5.57;;;4.10;;
13487;SDS011;6816;48.506;9.050;2023-02-25T01:48:14;5.83;;;4.17;;
13487;SDS011;6816;48.506;9.050;2023-02-25T01:51:17;4.23;;;3.63;;
13487;SDS011;6816;48.506;9.050;2023-02-25T01:54:18;4.93;;;3.57;;
13487;SDS011;6816;48.506;9.050;2023-02-25T01:57:20;6.10;;;4.27;;
13487;SDS011;6816;48.506;9.050;2023-02-25T02:00:21;7.43;;;4.50;;
13487;SDS011;6816;48.506;9.050;2023-02-25T02:03:24;5.23;;;4.37;;
13487;SDS011;6816;48.506;9.050;2023-02-25T02:06:28;6.13;;;4.70;;
13487;SDS011;6816;48.506;9.050;2023-02-25T02:09:33;5.80;;;4.50;;
13487;SDS011;6816;48.506;9.050;2023-02-25T02:12:38;5.93;;;4.13;;
13487;SDS011;6816;48.506;9.050;2023-02-25T02:15:44;6.80;;;4.30;;
13487;SDS011;6816;48.506;9.050;2023-02-25T02:18:59;5.97;;;4.37;;
13487;SDS011;6816;48.506;9.050;2023-02-25T02:43:05;5.03;;;4.17;;
13487;SDS011;6816;48.506;9.050;2023-02-25T02:46:30;6.00;;;4.13;;
13487;SDS011;6816;48.506;9.050;2023-02-25T02:49:55;6.00;;;3.77;;
13487;SDS011;6816;48.506;9.050;2023-02-25T02:53:05;7.80;;;4.50;;
13487;SDS011;6816;48.506;9.050;2023-02-25T02:56:32;5.20;;;3.97;;
13487;SDS011;6816;48.506;9.050;2023-02-25T02:59:39;5.83;;;4.40;;
13487;SDS011;6816;48.506;9.050;2023-02-25T03:03:06;6.03;;;4.70;;
13487;SDS011;6816;48.506;9.050;2023-02-25T03:06:16;6.33;;;4.47;;
13487;SDS011;6816;48.506;9.050;2023-02-25T03:09:29;6.60;;;4.40;;
13487;SDS011;6816;48.506;9.050;2023-02-25T03:12:34;5.00;;;4.23;;
13487;SDS011;6816;48.506;9.050;2023-02-25T03:15:38;5.63;;;3.97;;
13487;SDS011;6816;48.506;9.050;2023-02-25T03:18:41;4.37;;;3.87;;
13487;SDS011;6816;48.506;9.050;2023-02-25T03:21:48;5.43;;;4.23;;
13487;SDS011;6816;48.506;9.050;2023-02-25T03:25:04;5.20;;;4.43;;
13487;SDS011;6816;48.506;9.050;2023-02-25T03:28:28;6.00;;;4.40;;
13487;SDS011;6816;48.506;9.050;2023-02-25T03:31:32;7.00;;;4.77;;
13487;SDS011;6816;48.506;9.050;2023-02-25T03:34:38;4.53;;;3.77;;
13487;SDS011;6816;48.506;9.050;2023-02-25T03:37:44;5.17;;;4.13;;
13487;SDS011;6816;48.506;9.050;2023-02-25T03:40:49;5.30;;;4.40;;
13487;SDS011;6816;48.506;9.050;2023-02-25T03:43:52;6.07;;;4.90;;
13487;SDS011;6816;48.506;9.050;2023-02-25T03:46:55;5.70;;;4.43;;
13487;SDS011;6816;48.506;9.050;2023-02-25T03:50:08;5.90;;;4.33;;
13487;SDS011;6816;48.506;9.050;2023-02-25T03:53:12;4.97;;;4.17;;
13487;SDS011;6816;48.506;9.050;2023-02-25T03:56:13;4.60;;;3.87;;
13487;SDS011;6816;48.506;9.050;2023-02-25T03:59:14;6.13;;;4.50;;
13487;SDS011;6816;48.506;9.050;2023-02-25T04:02:15;6.23;;;4.67;;
13487;SDS011;6816;48.506;9.050;2023-02-25T04:05:18;6.47;;;4.47;;
13487;SDS011;6816;48.506;9.050;2023-02-25T04:08:20;5.87;;;4.47;;
13487;SDS011;6816;48.506;9.050;2023-02-25T04:11:20;5.17;;;4.30;;
13487;SDS011;6816;48.506;9.050;2023-02-25T04:14:22;7.07;;;4.83;;
13487;SDS011;6816;48.506;9.050;2023-02-25T04:17:23;5.77;;;4.40;;
13487;SDS011;6816;48.506;9.050;2023-02-25T04:20:24;6.47;;;4.57;;
13487;SDS011;6816;48.506;9.050;2023-02-25T04:23:25;5.23;;;4.37;;
13487;SDS011;6816;48.506;9.050;2023-02-25T04:26:26;6.00;;;5.07;;
13487;SDS011;6816;48.506;9.050;2023-02-25T04:29:27;8.27;;;5.17;;
13487;SDS011;6816;48.506;9.050;2023-02-25T04:32:28;5.60;;;4.90;;
13487;SDS011;6816;48.506;9.050;2023-02-25T04:35:29;6.00;;;4.53;;
13487;SDS011;6816;48.506;9.050;2023-02-25T04:38:30;6.23;;;5.10;;
13487;SDS011;6816;48.506;9.050;2023-02-25T04:41:31;5.57;;;4.37;;
13487;SDS011;6816;48.506;9.050;2023-02-25T04:44:34;6.17;;;4.60;;
13487;SDS011;6816;48.506;9.050;2023-02-25T04:47:34;6.07;;;4.70;;
13487;SDS011;6816;48.506;9.050;2023-02-25T04:50:35;6.63;;;5.03;;
13487;SDS011;6816;48.506;9.050;2023-02-25T04:53:36;7.17;;;5.17;;
13487;SDS011;6816;48.506;9.050;2023-02-25T04:56:37;6.93;;;5.23;;
13487;SDS011;6816;48.506;9.050;2023-02-25T04:59:38;6.93;;;5.10;;
13487;SDS011;6816;48.506;9.050;2023-02-25T05:02:39;9.60;;;5.33;;
13487;SDS011;6816;48.506;9.050;2023-02-25T05:05:40;6.63;;;5.20;;
13487;SDS011;6816;48.506;9.050;2023-02-25T05:08:40;7.10;;;5.00;;
13487;SDS011;6816;48.506;9.050;2023-02-25T05:11:41;6.37;;;4.83;;
13487;SDS011;6816;48.506;9.050;2023-02-25T05:14:41;6.20;;;4.33;;
13487;SDS011;6816;48.506;9.050;2023-02-25T05:17:42;6.67;;;4.93;;
13487;SDS011;6816;48.506;9.050;2023-02-25T05:20:44;6.50;;;4.77;;
13487;SDS011;6816;48.506;9.050;2023-02-25T05:23:46;6.13;;;4.80;;
13487;SDS011;6816;48.506;9.050;2023-02-25T05:26:48;5.73;;;4.03;;
13487;SDS011;6816;48.506;9.050;2023-02-25T05:29:49;5.53;;;4.00;;
13487;SDS011;6816;48.506;9.050;2023-02-25T05:32:50;4.87;;;3.90;;
13487;SDS011;6816;48.506;9.050;2023-02-25T05:35:51;5.37;;;4.37;;
13487;SDS011;6816;48.506;9.050;2023-02-25T05:38:52;4.43;;;3.33;;
13487;SDS011;6816;48.506;9.050;2023-02-25T05:41:54;4.90;;;3.40;;
13487;SDS011;6816;48.506;9.050;2023-02-25T05:44:55;3.93;;;2.90;;
13487;SDS011;6816;48.506;9.050;2023-02-25T05:47:55;4.83;;;3.13;;
13487;SDS011;6816;48.506;9.050;2023-02-25T05:51:00;3.87;;;2.67;;
13487;SDS011;6816;48.506;9.050;2023-02-25T05:54:06;4.07;;;2.73;;
13487;SDS011;6816;48.506;9.050;2023-02-25T05:57:06;4.63;;;3.23;;
13487;SDS011;6816;48.506;9.050;2023-02-25T06:00:07;3.73;;;2.27;;
13487;SDS011;6816;48.506;9.050;2023-02-25T06:03:13;3.83;;;1.83;;
13487;SDS011;6816;48.506;9.050;2023-02-25T06:06:15;2.80;;;1.77;;
13487;SDS011;6816;48.506;9.050;2023-02-25T06:09:21;2.00;;;1.40;;
13487;SDS011;6816;48.506;9.050;2023-02-25T06:12:22;2.10;;;1.37;;
13487;SDS011;6816;48.506;9.050;2023-02-25T06:15:22;2.50;;;1.80;;
13487;SDS011;6816;48.506;9.050;2023-02-25T06:18:23;2.60;;;1.70;;
13487;SDS011;6816;48.506;9.050;2023-02-25T06:21:24;2.33;;;1.77;;
13487;SDS011;6816;48.506;9.050;2023-02-25T06:24:25;3.77;;;1.70;;
13487;SDS011;6816;48.506;9.050;2023-02-25T06:27:25;2.07;;;1.70;;
13487;SDS011;6816;48.506;9.050;2023-02-25T06:30:26;2.33;;;1.67;;
13487;SDS011;6816;48.506;9.050;2023-02-25T06:33:28;1.57;;;1.33;;
13487;SDS011;6816;48.506;9.050;2023-02-25T06:36:32;2.30;;;1.73;;
13487;SDS011;6816;48.506;9.050;2023-02-25T06:39:33;5.30;;;2.13;;
13487;SDS011;6816;48.506;9.050;2023-02-25T06:42:34;3.57;;;1.73;;
13487;SDS011;6816;48.506;9.050;2023-02-25T06:45:34;2.00;;;1.70;;
13487;SDS011;6816;48.506;9.050;2023-02-25T06:48:35;2.40;;;1.63;;
13487;SDS011;6816;48.506;9.050;2023-02-25T06:51:36;2.27;;;1.60;;
13487;SDS011;6816;48.506;9.050;2023-02-25T06:54:37;2.40;;;1.50;;
13487;SDS011;6816;48.506;9.050;2023-02-25T06:57:37;2.50;;;1.70;;
13487;SDS011;6816;48.506;9.050;2023-02-25T07:00:38;2.27;;;1.50;;
13487;SDS011;6816;48.506;9.050;2023-02-25T07:03:42;2.63;;;1.43;;
13487;SDS011;6816;48.506;9.050;2023-02-25T07:06:42;2.60;;;1.20;;
13487;SDS011;6816;48.506;9.050;2023-02-25T07:09:44;2.47;;;1.50;;
13487;SDS011;6816;48.506;9.050;2023-02-25T07:12:44;3.37;;;1.70;;
13487;SDS011;6816;48.506;9.050;2023-02-25T07:15:45;2.57;;;1.67;;
13487;SDS011;6816;48.506;9.050;2023-02-25T07:18:45;2.30;;;1.30;;
13487;SDS011;6816;48.506;9.050;2023-02-25T07:21:46;1.90;;;1.50;;
13487;SDS011;6816;48.506;9.050;2023-02-25T07:24:48;2.20;;;1.57;;
13487;SDS011;6816;48.506;9.050;2023-02-25T07:27:49;3.23;;;1.63;;
13487;SDS011;6816;48.506;9.050;2023-02-25T07:30:49;4.30;;;1.93;;
13487;SDS011;6816;48.506;9.050;2023-02-25T07:33:50;1.70;;;1.40;;
13487;SDS011;6816;48.506;9.050;2023-02-25T07:36:52;2.83;;;1.80;;
13487;SDS011;6816;48.506;9.050;2023-02-25T07:39:53;2.80;;;1.73;;
13487;SDS011;6816;48.506;9.050;2023-02-25T07:42:54;2.73;;;1.83;;
13487;SDS011;6816;48.506;9.050;2023-02-25T07:45:55;2.87;;;1.93;;
13487;SDS011;6816;48.506;9.050;2023-02-25T07:48:57;2.90;;;2.07;;
13487;SDS011;6816;48.506;9.050;2023-02-25T07:51:58;3.57;;;1.90;;
13487;SDS011;6816;48.506;9.050;2023-02-25T07:54:59;3.17;;;1.57;;
13487;SDS011;6816;48.506;9.050;2023-02-25T07:58:00;2.37;;;1.13;;
13487;SDS011;6816;48.506;9.050;2023-02-25T08:01:01;4.90;;;1.83;;
13487;SDS011;6816;48.506;9.050;2023-02-25T08:04:09;2.43;;;1.40;;
13487;SDS011;6816;48.506;9.050;2023-02-25T08:07:10;4.17;;;1.37;;
13487;SDS011;6816;48.506;9.050;2023-02-25T08:10:11;3.90;;;1.37;;
13487;SDS011;6816;48.506;9.050;2023-02-25T08:13:14;2.03;;;1.40;;
13487;SDS011;6816;48.506;9.050;2023-02-25T08:16:19;4.37;;;1.23;;
13487;SDS011;6816;48.506;9.050;2023-02-25T08:19:20;1.33;;;1.00;;
13487;SDS011;6816;48.506;9.050;2023-02-25T08:22:21;2.47;;;1.40;;
13487;SDS011;6816;48.506;9.050;2023-02-25T08:25:21;3.17;;;1.53;;
13487;SDS011;6816;48.506;9.050;2023-02-25T08:28:22;2.97;;;1.40;;
13487;SDS011;6816;48.506;9.050;2023-02-25T08:31:25;2.10;;;1.00;;
13487;SDS011;6816;48.506;9.050;2023-02-25T08:34:26;1.63;;;1.20;;
13487;SDS011;6816;48.506;9.050;2023-02-25T08:37:26;1.40;;;0.93;;
13487;SDS011;6816;48.506;9.050;2023-02-25T08:40:27;1.13;;;1.03;;
13487;SDS011;6816;48.506;9.050;2023-02-25T08:43:28;1.70;;;1.03;;
13487;SDS011;6816;48.506;9.050;2023-02-25T08:46:29;3.10;;;1.40;;
13487;SDS011;6816;48.506;9.050;2023-02-25T08:49:31;3.57;;;1.40;;
13487;SDS011;6816;48.506;9.050;2023-02-25T08:52:32;1.13;;;1.00;;
13487;SDS011;6816;48.506;9.050;2023-02-25T08:55:34;2.97;;;1.03;;
13487;SDS011;6816;48.506;9.050;2023-02-25T08:58:35;2.83;;;1.03;;
13487;SDS011;6816;48.506;9.050;2023-02-25T09:01:36;3.03;;;1.13;;
13487;SDS011;6816;48.506;9.050;2023-02-25T09:04:43;2.27;;;1.13;;
13487;SDS011;6816;48.506;9.050;2023-02-25T09:07:44;3.27;;;1.20;;
13487;SDS011;6816;48.506;9.050;2023-02-25T09:10:45;2.00;;;1.13;;
13487;SDS011;6816;48.506;9.050;2023-02-25T09:13:46;2.20;;;1.30;;
13487;SDS011;6816;48.506;9.050;2023-02-25T09:16:47;2.13;;;1.30;;
13487;SDS011;6816;48.506;9.050;2023-02-25T09:19:48;2.80;;;1.00;;
13487;SDS011;6816;48.506;9.050;2023-02-25T09:22:49;2.67;;;0.90;;
13487;SDS011;6816;48.506;9.050;2023-02-25T09:25:49;2.43;;;0.90;;
13487;SDS011;6816;48.506;9.050;2023-02-25T09:28:50;2.53;;;0.80;;
13487;SDS011;6816;48.506;9.050;2023-02-25T09:31:50;2.10;;;1.20;;
13487;SDS011;6816;48.506;9.050;2023-02-25T09:34:52;2.43;;;1.03;;
13487;SDS011;6816;48.506;9.050;2023-02-25T09:37:53;2.50;;;1.17;;
13487;SDS011;6816;48.506;9.050;2023-02-25T09:40:54;2.27;;;1.30;;
13487;SDS011;6816;48.506;9.050;2023-02-25T09:44:11;2.77;;;1.07;;
13487;SDS011;6816;48.506;9.050;2023-02-25T09:50:24;3.63;;;1.10;;
13487;SDS011;6816;48.506;9.050;2023-02-25T09:53:44;1.20;;;0.93;;
13487;SDS011;6816;48.506;9.050;2023-02-25T09:56:51;1.47;;;0.93;;
13487;SDS011;6816;48.506;9.050;2023-02-25T09:59:54;1.33;;;0.80;;
13487;SDS011;6816;48.506;9.050;2023-02-25T10:03:05;2.77;;;1.40;;
13487;SDS011;6816;48.506;9.050;2023-02-25T10:16:24;2.03;;;1.03;;
13487;SDS011;6816;48.506;9.050;2023-02-25T10:23:42;4.77;;;0.97;;
13487;SDS011;6816;48.506;9.050;2023-02-25T10:26:50;2.27;;;1.00;;
13487;SDS011;6816;48.506;9.050;2023-02-25T10:29:58;1.67;;;0.70;;
13487;SDS011;6816;48.506;9.050;2023-02-25T10:33:07;2.03;;;0.63;;
13487;SDS011;6816;48.506;9.050;2023-02-25T10:36:24;1.03;;;0.80;;
13487;SDS011;6816;48.506;9.050;2023-02-25T10:39:29;1.73;;;0.83;;
13487;SDS011;6816;48.506;9.050;2023-02-25T10:42:30;1.87;;;1.00;;
13487;SDS011;6816;48.506;9.050;2023-02-25T10:45:31;2.67;;;1.00;;
13487;SDS011;6816;48.506;9.050;2023-02-25T10:48:31;1.77;;;0.90;;
13487;SDS011;6816;48.506;9.050;2023-02-25T10:51:34;1.90;;;0.70;;
13487;SDS011;6816;48.506;9.050;2023-02-25T10:54:51;1.77;;;0.80;;
13487;SDS011;6816;48.506;9.050;2023-02-25T10:57:53;1.50;;;0.80;;
13487;SDS011;6816;48.506;9.050;2023-02-25T11:01:16;2.10;;;0.90;;
13487;SDS011;6816;48.506;9.050;2023-02-25T11:04:18;2.30;;;1.00;;
13487;SDS011;6816;48.506;9.050;2023-02-25T11:07:23;2.83;;;1.13;;
13487;SDS011;6816;48.506;9.050;2023-02-25T11:10:33;1.83;;;0.90;;
13487;SDS011;6816;48.506;9.050;2023-02-25T11:13:34;2.57;;;0.60;;
13487;SDS011;6816;48.506;9.050;2023-02-25T11:16:36;3.13;;;1.10;;
13487;SDS011;6816;48.506;9.050;2023-02-25T11:19:40;1.47;;;0.93;;
13487;SDS011;6816;48.506;9.050;2023-02-25T11:22:44;1.97;;;0.97;;
13487;SDS011;6816;48.506;9.050;2023-02-25T11:25:45;2.23;;;1.00;;
13487;SDS011;6816;48.506;9.050;2023-02-25T11:28:47;2.50;;;1.20;;
13487;SDS011;6816;48.506;9.050;2023-02-25T11:31:52;1.77;;;1.30;;
13487;SDS011;6816;48.506;9.050;2023-02-25T11:35:01;1.53;;;1.03;;
13487;SDS011;6816;48.506;9.050;2023-02-25T11:38:14;3.13;;;1.20;;
13487;SDS011;6816;48.506;9.050;2023-02-25T11:41:24;2.37;;;0.80;;
13487;SDS011;6816;48.506;9.050;2023-02-25T11:44:41;3.13;;;1.30;;
13487;SDS011;6816;48.506;9.050;2023-02-25T11:47:43;2.53;;;1.03;;
13487;SDS011;6816;48.506;9.050;2023-02-25T11:50:46;2.43;;;1.00;;
13487;SDS011;6816;48.506;9.050;2023-02-25T11:54:25;2.87;;;1.00;;
13487;SDS011;6816;48.506;9.050;2023-02-25T12:00:54;1.70;;;0.87;;
13487;SDS011;6816;48.506;9.050;2023-02-25T12:07:25;3.90;;;1.23;;
13487;SDS011;6816;48.506;9.050;2023-02-25T13:16:26;1.70;;;0.80;;
13487;SDS011;6816;48.506;9.050;2023-02-25T13:19:58;4.73;;;0.80;;
13487;SDS011;6816;48.506;9.050;2023-02-25T13:26:26;1.17;;;0.80;;
13487;SDS011;6816;48.506;9.050;2023-02-25T13:29:56;2.57;;;0.67;;
13487;SDS011;6816;48.506;9.050;2023-02-25T13:36:37;2.10;;;0.90;;
13487;SDS011;6816;48.506;9.050;2023-02-25T13:39:58;2.83;;;1.63;;
13487;SDS011;6816;48.506;9.050;2023-02-25T13:43:16;2.27;;;0.90;;
13487;SDS011;6816;48.506;9.050;2023-02-25T14:00:19;2.37;;;0.80;;
13487;SDS011;6816;48.506;9.050;2023-02-25T14:03:47;2.53;;;0.80;;
13487;SDS011;6816;48.506;9.050;2023-02-25T14:07:19;1.43;;;0.80;;
13487;SDS011;6816;48.506;9.050;2023-02-25T14:24:02;1.73;;;0.63;;
13487;SDS011;6816;48.506;9.050;2023-02-25T14:30:47;1.07;;;0.70;;
13487;SDS011;6816;48.506;9.050;2023-02-25T14:38:14;1.43;;;0.60;;
13487;SDS011;6816;48.506;9.050;2023-02-25T14:47:53;1.37;;;0.80;;
13487;SDS011;6816;48.506;9.050;2023-02-25T14:54:34;1.87;;;0.80;;
13487;SDS011;6816;48.506;9.050;2023-02-25T14:58:05;1.73;;;0.80;;
13487;SDS011;6816;48.506;9.050;2023-02-25T15:04:48;1.87;;;0.87;;
13487;SDS011;6816;48.506;9.050;2023-02-25T15:11:30;4.73;;;1.10;;
13487;SDS011;6816;48.506;9.050;2023-02-25T15:21:46;4.00;;;1.20;;
13487;SDS011;6816;48.506;9.050;2023-02-25T15:24:49;1.93;;;0.73;;
13487;SDS011;6816;48.506;9.050;2023-02-25T15:27:51;1.40;;;0.70;;
13487;SDS011;6816;48.506;9.050;2023-02-25T15:34:45;1.70;;;0.70;;
13487;SDS011;6816;48.506;9.050;2023-02-25T15:43:40;1.10;;;0.80;;
13487;SDS011;6816;48.506;9.050;2023-02-25T15:46:42;2.00;;;0.70;;
13487;SDS011;6816;48.506;9.050;2023-02-25T15:49:45;2.23;;;1.00;;
13487;SDS011;6816;48.506;9.050;2023-02-25T15:52:51;1.37;;;0.70;;
13487;SDS011;6816;48.506;9.050;2023-02-25T15:59:07;1.67;;;0.80;;
13487;SDS011;6816;48.506;9.050;2023-02-25T16:05:32;2.10;;;0.80;;
13487;SDS011;6816;48.506;9.050;2023-02-25T16:08:36;1.80;;;0.90;;
13487;SDS011;6816;48.506;9.050;2023-02-25T16:11:50;1.93;;;0.80;;
13487;SDS011;6816;48.506;9.050;2023-02-25T16:14:55;2.27;;;1.00;;
13487;SDS011;6816;48.506;9.050;2023-02-25T16:17:58;3.23;;;0.90;;
13487;SDS011;6816;48.506;9.050;2023-02-25T16:21:22;1.77;;;0.93;;
13487;SDS011;6816;48.506;9.050;2023-02-25T16:24:25;2.20;;;0.70;;
13487;SDS011;6816;48.506;9.050;2023-02-25T16:27:51;2.53;;;0.90;;
13487;SDS011;6816;48.506;9.050;2023-02-25T16:31:47;2.27;;;1.00;;
13487;SDS011;6816;48.506;9.050;2023-02-25T16:35:15;1.67;;;0.70;;
13487;SDS011;6816;48.506;9.050;2023-02-25T16:38:29;1.77;;;0.77;;
13487;SDS011;6816;48.506;9.050;2023-02-25T16:41:40;2.00;;;0.90;;
13487;SDS011;6816;48.506;9.050;2023-02-25T16:44:43;1.00;;;0.70;;
13487;SDS011;6816;48.506;9.050;2023-02-25T16:47:46;3.43;;;0.83;;
13487;SDS011;6816;48.506;9.050;2023-02-25T16:50:53;2.23;;;1.27;;
13487;SDS011;6816;48.506;9.050;2023-02-25T16:53:58;1.57;;;0.67;;
13487;SDS011;6816;48.506;9.050;2023-02-25T16:57:05;1.13;;;0.70;;
13487;SDS011;6816;48.506;9.050;2023-02-25T17:00:18;2.13;;;0.80;;
13487;SDS011;6816;48.506;9.050;2023-02-25T17:03:21;2.10;;;1.00;;
13487;SDS011;6816;48.506;9.050;2023-02-25T17:06:23;1.57;;;0.90;;
13487;SDS011;6816;48.506;9.050;2023-02-25T17:09:24;3.50;;;1.17;;
13487;SDS011;6816;48.506;9.050;2023-02-25T17:15:35;2.50;;;1.00;;
13487;SDS011;6816;48.506;9.050;2023-02-25T17:18:40;2.03;;;0.80;;
13487;SDS011;6816;48.506;9.050;2023-02-25T17:21:55;2.20;;;0.90;;
13487;SDS011;6816;48.506;9.050;2023-02-25T17:24:57;1.50;;;1.07;;
13487;SDS011;6816;48.506;9.050;2023-02-25T17:27:59;1.60;;;0.90;;
13487;SDS011;6816;48.506;9.050;2023-02-25T17:31:19;6.30;;;1.07;;
13487;SDS011;6816;48.506;9.050;2023-02-25T17:34:29;3.93;;;1.13;;
13487;SDS011;6816;48.506;9.050;2023-02-25T17:37:34;1.77;;;0.97;;
13487;SDS011;6816;48.506;9.050;2023-02-25T17:40:35;1.37;;;0.73;;
13487;SDS011;6816;48.506;9.050;2023-02-25T17:43:36;2.50;;;1.10;;
13487;SDS011;6816;48.506;9.050;2023-02-25T17:46:38;2.37;;;1.00;;
13487;SDS011;6816;48.506;9.050;2023-02-25T17:49:43;2.43;;;1.00;;
13487;SDS011;6816;48.506;9.050;2023-02-25T17:52:45;1.50;;;0.80;;
13487;SDS011;6816;48.506;9.050;2023-02-25T17:55:47;2.13;;;0.80;;
13487;SDS011;6816;48.506;9.050;2023-02-25T17:58:48;2.33;;;1.07;;
13487;SDS011;6816;48.506;9.050;2023-02-25T18:01:54;3.87;;;1.20;;
13487;SDS011;6816;48.506;9.050;2023-02-25T18:08:22;2.43;;;1.10;;
13487;SDS011;6816;48.506;9.050;2023-02-25T18:11:31;2.03;;;0.90;;
13487;SDS011;6816;48.506;9.050;2023-02-25T18:14:38;2.97;;;0.80;;
13487;SDS011;6816;48.506;9.050;2023-02-25T18:17:51;2.27;;;1.07;;
13487;SDS011;6816;48.506;9.050;2023-02-25T18:20:56;2.70;;;1.00;;
13487;SDS011;6816;48.506;9.050;2023-02-25T18:23:57;2.93;;;1.27;;
13487;SDS011;6816;48.506;9.050;2023-02-25T18:27:01;1.90;;;1.10;;
13487;SDS011;6816;48.506;9.050;2023-02-25T18:30:16;2.60;;;1.17;;
13487;SDS011;6816;48.506;9.050;2023-02-25T18:33:18;1.43;;;1.00;;
13487;SDS011;6816;48.506;9.050;2023-02-25T18:36:20;1.90;;;1.10;;
13487;SDS011;6816;48.506;9.050;2023-02-25T18:39:23;3.13;;;1.10;;
13487;SDS011;6816;48.506;9.050;2023-02-25T18:42:25;2.13;;;1.10;;
13487;SDS011;6816;48.506;9.050;2023-02-25T18:45:26;1.10;;;0.83;;
13487;SDS011;6816;48.506;9.050;2023-02-25T18:48:28;1.57;;;0.83;;
13487;SDS011;6816;48.506;9.050;2023-02-25T18:51:31;2.00;;;1.03;;
13487;SDS011;6816;48.506;9.050;2023-02-25T18:54:32;1.40;;;0.80;;
13487;SDS011;6816;48.506;9.050;2023-02-25T18:57:34;1.50;;;1.30;;
13487;SDS011;6816;48.506;9.050;2023-02-25T19:00:34;1.33;;;1.00;;
13487;SDS011;6816;48.506;9.050;2023-02-25T19:03:36;1.97;;;1.17;;
13487;SDS011;6816;48.506;9.050;2023-02-25T19:06:38;1.47;;;1.30;;
13487;SDS011;6816;48.506;9.050;2023-02-25T19:09:38;2.90;;;1.50;;
13487;SDS011;6816;48.506;9.050;2023-02-25T19:12:40;1.80;;;1.27;;
13487;SDS011;6816;48.506;9.050;2023-02-25T19:15:41;2.27;;;1.90;;
13487;SDS011;6816;48.506;9.050;2023-02-25T19:18:42;2.60;;;1.80;;
13487;SDS011;6816;48.506;9.050;2023-02-25T19:21:42;2.03;;;1.57;;
13487;SDS011;6816;48.506;9.050;2023-02-25T19:24:44;2.13;;;1.60;;
13487;SDS011;6816;48.506;9.050;2023-02-25T19:27:46;1.70;;;1.37;;
13487;SDS011;6816;48.506;9.050;2023-02-25T19:30:48;1.73;;;1.30;;
13487;SDS011;6816;48.506;9.050;2023-02-25T19:33:49;5.40;;;2.07;;
13487;SDS011;6816;48.506;9.050;2023-02-25T19:36:49;3.30;;;2.10;;
13487;SDS011;6816;48.506;9.050;2023-02-25T19:39:50;2.03;;;1.80;;
13487;SDS011;6816;48.506;9.050;2023-02-25T19:42:50;3.50;;;1.80;;
13487;SDS011;6816;48.506;9.050;2023-02-25T19:45:51;5.73;;;2.40;;
13487;SDS011;6816;48.506;9.050;2023-02-25T19:48:53;2.13;;;1.67;;
13487;SDS011;6816;48.506;9.050;2023-02-25T19:51:54;2.10;;;1.87;;
13487;SDS011;6816;48.506;9.050;2023-02-25T19:54:55;2.90;;;2.27;;
13487;SDS011;6816;48.506;9.050;2023-02-25T19:57:55;4.30;;;2.63;;
13487;SDS011;6816;48.506;9.050;2023-02-25T20:01:00;4.87;;;3.20;;
13487;SDS011;6816;48.506;9.050;2023-02-25T20:04:05;3.50;;;2.20;;
13487;SDS011;6816;48.506;9.050;2023-02-25T20:07:08;2.70;;;2.37;;
13487;SDS011;6816;48.506;9.050;2023-02-25T20:10:09;3.10;;;1.87;;
13487;SDS011;6816;48.506;9.050;2023-02-25T20:13:12;3.73;;;2.00;;
13487;SDS011;6816;48.506;9.050;2023-02-25T20:16:13;3.23;;;1.53;;
13487;SDS011;6816;48.506;9.050;2023-02-25T20:19:14;3.27;;;1.70;;
13487;SDS011;6816;48.506;9.050;2023-02-25T20:22:15;3.50;;;2.30;;
13487;SDS011;6816;48.506;9.050;2023-02-25T20:25:19;2.33;;;1.83;;
13487;SDS011;6816;48.506;9.050;2023-02-25T20:28:20;6.30;;;1.97;;
13487;SDS011;6816;48.506;9.050;2023-02-25T20:31:24;2.40;;;1.43;;
13487;SDS011;6816;48.506;9.050;2023-02-25T20:34:25;2.73;;;1.90;;
13487;SDS011;6816;48.506;9.050;2023-02-25T20:37:27;1.97;;;1.50;;
13487;SDS011;6816;48.506;9.050;2023-02-25T20:40:32;2.67;;;1.60;;
13487;SDS011;6816;48.506;9.050;2023-02-25T20:43:33;3.00;;;1.77;;
13487;SDS011;6816;48.506;9.050;2023-02-25T20:46:34;2.57;;;1.70;;
13487;SDS011;6816;48.506;9.050;2023-02-25T20:49:35;2.43;;;1.70;;
13487;SDS011;6816;48.506;9.050;2023-02-25T20:52:39;3.23;;;1.80;;
13487;SDS011;6816;48.506;9.050;2023-02-25T20:55:39;2.23;;;1.70;;
13487;SDS011;6816;48.506;9.050;2023-02-25T20:58:40;2.50;;;2.03;;
13487;SDS011;6816;48.506;9.050;2023-02-25T21:01:41;3.33;;;1.70;;
13487;SDS011;6816;48.506;9.050;2023-02-25T21:04:42;2.73;;;1.70;;
13487;SDS011;6816;48.506;9.050;2023-02-25T21:07:43;2.13;;;1.70;;
13487;SDS011;6816;48.506;9.050;2023-02-25T21:10:43;4.20;;;1.80;;
13487;SDS011;6816;48.506;9.050;2023-02-25T21:13:44;3.37;;;1.67;;
13487;SDS011;6816;48.506;9.050;2023-02-25T21:16:47;1.83;;;1.60;;
13487;SDS011;6816;48.506;9.050;2023-02-25T21:19:53;3.60;;;1.77;;
13487;SDS011;6816;48.506;9.050;2023-02-25T21:22:53;2.97;;;1.50;;
13487;SDS011;6816;48.506;9.050;2023-02-25T21:25:54;1.87;;;1.30;;
13487;SDS011;6816;48.506;9.050;2023-02-25T21:28:55;2.00;;;1.50;;
13487;SDS011;6816;48.506;9.050;2023-02-25T21:31:55;1.47;;;1.20;;
13487;SDS011;6816;48.506;9.050;2023-02-25T21:34:56;2.47;;;0.90;;
13487;SDS011;6816;48.506;9.050;2023-02-25T21:37:57;2.23;;;1.40;;
13487;SDS011;6816;48.506;9.050;2023-02-25T21:41:02;2.43;;;1.50;;
13487;SDS011;6816;48.506;9.050;2023-02-25T21:44:13;2.53;;;1.37;;
13487;SDS011;6816;48.506;9.050;2023-02-25T21:47:14;3.67;;;1.30;;
13487;SDS011;6816;48.506;9.050;2023-02-25T21:50:14;3.47;;;1.67;;
13487;SDS011;6816;48.506;9.050;2023-02-25T21:53:15;1.50;;;1.30;;
13487;SDS011;6816;48.506;9.050;2023-02-25T21:56:16;1.13;;;0.90;;
13487;SDS011;6816;48.506;9.050;2023-02-25T21:59:17;2.40;;;1.53;;
13487;SDS011;6816;48.506;9.050;2023-02-25T22:02:18;3.33;;;1.00;;
13487;SDS011;6816;48.506;9.050;2023-02-25T22:05:19;1.87;;;0.80;;
13487;SDS011;6816;48.506;9.050;2023-02-25T22:08:19;1.07;;;0.90;;
13487;SDS011;6816;48.506;9.050;2023-02-25T22:11:23;2.80;;;1.10;;